createdAt,value
2018-04-08T00:00:05.369Z,9.20
2018-04-08T00:02:33.945Z,8.77
2018-04-08T00:05:02.267Z,9.48
2018-04-08T00:07:32.217Z,10.02
2018-04-08T00:10:00.622Z,9.23
2018-04-08T00:12:29.024Z,9.23
2018-04-08T00:14:57.593Z,8.70
2018-04-08T00:17:25.970Z,9.70
2018-04-08T00:19:54.585Z,8.77
2018-04-08T00:22:23.041Z,8.20
2018-04-08T00:24:51.504Z,9.45
2018-04-08T00:27:20.200Z,9.20
2018-04-08T00:29:48.680Z,9.60
2018-04-08T00:32:17.102Z,8.82
2018-04-08T00:34:45.440Z,9.20
2018-04-08T00:37:15.136Z,8.60
2018-04-08T00:39:43.485Z,10.02
2018-04-08T00:42:11.926Z,9.73
2018-04-08T00:44:40.294Z,10.00
2018-04-08T00:47:09.762Z,9.57
2018-04-08T00:49:38.125Z,9.35
2018-04-08T00:52:06.590Z,8.93
2018-04-08T00:54:39.521Z,8.95
2018-04-08T00:57:08.742Z,8.50
2018-04-08T00:59:37.184Z,9.13
2018-04-08T01:02:05.484Z,8.52
2018-04-08T01:04:33.762Z,8.70
2018-04-08T01:07:02.559Z,9.57
2018-04-08T01:09:30.833Z,9.77
2018-04-08T01:11:59.116Z,9.70
2018-04-08T01:14:27.388Z,9.32
2018-04-08T01:16:57.217Z,8.80
2018-04-08T01:19:25.601Z,10.45
2018-04-08T01:21:53.969Z,8.82
2018-04-08T01:24:22.454Z,8.90
2018-04-08T01:26:51.196Z,9.23
2018-04-08T01:29:19.596Z,9.18
2018-04-08T01:31:48.360Z,8.93
2018-04-08T01:34:16.663Z,8.52
2018-04-08T01:36:59.799Z,9.73
2018-04-08T01:39:28.174Z,8.82
2018-04-08T01:42:00.040Z,9.20
2018-04-08T01:44:28.396Z,8.25
2018-04-08T01:46:58.033Z,9.00
2018-04-08T01:49:26.657Z,8.95
2018-04-08T01:51:55.006Z,9.88
2018-04-08T01:54:23.343Z,8.88
2018-04-08T01:56:51.750Z,9.40
2018-04-08T01:59:20.121Z,9.57
2018-04-08T02:01:49.965Z,9.18
2018-04-08T02:04:18.325Z,9.35
2018-04-08T02:06:46.714Z,9.18
2018-04-08T02:09:15.077Z,9.13
2018-04-08T02:11:44.771Z,8.65
2018-04-08T02:14:13.078Z,8.00
2018-04-08T02:16:41.445Z,8.30
2018-04-08T02:19:10.069Z,10.02
2018-04-08T02:21:38.718Z,9.52
2018-04-08T02:24:07.111Z,10.27
2018-04-08T02:26:35.667Z,9.48
2018-04-08T02:29:03.980Z,10.05
2018-04-08T02:31:34.796Z,10.15
2018-04-08T02:34:03.157Z,10.43
2018-04-08T02:36:37.651Z,9.77
2018-04-08T02:39:06.936Z,10.32
2018-04-08T02:41:35.670Z,9.60
2018-04-08T02:44:04.036Z,8.82
2018-04-08T02:46:32.337Z,10.68
2018-04-08T02:49:00.956Z,9.68
2018-04-08T02:51:29.639Z,10.18
2018-04-08T02:53:57.971Z,10.07
2018-04-08T02:56:26.490Z,9.73
2018-04-08T02:58:54.845Z,9.55
2018-04-08T03:01:24.569Z,11.02
2018-04-08T03:03:52.900Z,10.25
2018-04-08T03:06:21.211Z,9.45
2018-04-08T03:08:49.725Z,9.40
2018-04-08T03:11:18.467Z,9.43
2018-04-08T03:13:46.890Z,8.98
2018-04-08T03:16:15.292Z,9.20
2018-04-08T03:18:43.845Z,9.68
2018-04-08T03:21:13.153Z,9.48
2018-04-08T03:23:41.570Z,10.15
2018-04-08T03:26:09.922Z,10.85
2018-04-08T03:28:38.331Z,10.13
2018-04-08T03:31:06.958Z,9.98
2018-04-08T03:33:35.355Z,9.40
2018-04-08T03:36:03.881Z,10.35
2018-04-08T03:38:32.267Z,10.30
2018-04-08T03:41:03.057Z,10.77
2018-04-08T03:43:31.350Z,10.70
2018-04-08T03:45:59.684Z,9.43
2018-04-08T03:48:28.856Z,10.10
2018-04-08T03:50:57.618Z,10.55
2018-04-08T03:53:26.220Z,9.95
2018-04-08T03:55:54.643Z,10.15
2018-04-08T03:58:23.010Z,11.12
2018-04-08T04:00:52.000Z,8.80
2018-04-08T04:03:20.372Z,9.52
2018-04-08T04:05:48.730Z,9.15
2018-04-08T04:08:17.200Z,9.73
2018-04-08T04:10:46.952Z,10.23
2018-04-08T04:13:15.381Z,8.70
2018-04-08T04:15:43.794Z,10.05
2018-04-08T04:18:22.306Z,8.35
2018-04-08T04:21:01.856Z,10.05
2018-04-08T04:23:43.703Z,9.32
2018-04-08T04:26:15.184Z,9.32
2018-04-08T04:28:43.519Z,9.73
2018-04-08T04:31:11.996Z,9.50
2018-04-08T04:33:40.628Z,10.27
2018-04-08T04:36:08.918Z,10.02
2018-04-08T04:38:37.250Z,9.88
2018-04-08T04:41:05.784Z,9.70
2018-04-08T04:43:34.658Z,10.93
2018-04-08T04:46:03.143Z,10.73
2018-04-08T04:48:31.521Z,10.25
2018-04-08T04:50:59.880Z,10.15
2018-04-08T04:53:29.860Z,10.45
2018-04-08T04:55:58.287Z,10.13
2018-04-08T04:58:26.738Z,10.30
2018-04-08T05:00:55.068Z,11.02
2018-04-08T05:03:23.807Z,11.00
2018-04-08T05:05:52.168Z,10.15
2018-04-08T05:08:20.880Z,10.70
2018-04-08T05:10:49.282Z,11.60
2018-04-08T05:13:17.630Z,9.65
2018-04-08T05:15:45.989Z,10.70
2018-04-08T05:18:14.338Z,10.63
2018-04-08T05:20:42.691Z,10.75
2018-04-08T05:23:12.655Z,10.50
2018-04-08T05:25:41.056Z,11.80
2018-04-08T05:28:09.518Z,10.23
2018-04-08T05:30:38.061Z,10.93
2018-04-08T05:33:06.753Z,9.30
2018-04-08T05:35:35.137Z,10.95
2018-04-08T05:38:03.896Z,10.90
2018-04-08T05:40:32.353Z,11.00
2018-04-08T05:43:00.790Z,11.73
2018-04-08T05:45:29.932Z,11.35
2018-04-08T05:48:00.972Z,11.32
2018-04-08T05:50:29.547Z,11.40
2018-04-08T05:52:58.163Z,11.15
2018-04-08T05:55:26.848Z,12.48
2018-04-08T05:57:55.693Z,10.50
2018-04-08T06:00:24.256Z,9.63
2018-04-08T06:02:52.903Z,11.35
2018-04-08T06:05:21.523Z,10.93
2018-04-08T06:07:51.026Z,12.43
2018-04-08T06:10:19.561Z,10.80
2018-04-08T06:12:47.988Z,11.00
2018-04-08T06:15:16.743Z,11.50
2018-04-08T06:17:45.675Z,10.95
2018-04-08T06:20:14.119Z,9.27
2018-04-08T06:22:42.834Z,9.82
2018-04-08T06:25:13.420Z,10.50
2018-04-08T06:27:42.144Z,10.07
2018-04-08T06:30:10.584Z,9.52
2018-04-08T06:32:39.190Z,9.65
2018-04-08T06:35:21.659Z,10.25
2018-04-08T06:37:50.201Z,9.82
2018-04-08T06:40:18.626Z,9.48
2018-04-08T06:42:47.409Z,9.93
2018-04-08T06:45:16.130Z,9.10
2018-04-08T06:47:47.336Z,8.43
2018-04-08T06:50:15.837Z,9.27
2018-04-08T06:52:44.166Z,9.13
2018-04-08T06:55:12.617Z,8.68
2018-04-08T06:57:41.519Z,8.55
2018-04-08T07:00:10.412Z,9.02
2018-04-08T07:02:38.988Z,8.95
2018-04-08T07:05:08.398Z,8.70
2018-04-08T07:07:36.885Z,7.55
2018-04-08T07:10:07.311Z,8.50
2018-04-08T07:12:35.666Z,8.30
2018-04-08T07:15:06.906Z,8.80
2018-04-08T07:17:35.330Z,8.40
2018-04-08T07:20:03.889Z,8.43
2018-04-08T07:22:37.348Z,8.05
2018-04-08T07:25:06.880Z,8.13
2018-04-08T07:27:35.186Z,7.95
2018-04-08T07:30:03.768Z,8.48
2018-04-08T07:32:32.568Z,8.55
2018-04-08T07:35:01.072Z,8.82
2018-04-08T07:37:29.586Z,9.13
2018-04-08T07:39:58.082Z,8.35
2018-04-08T07:42:28.121Z,8.07
2018-04-08T07:44:57.375Z,9.25
2018-04-08T07:47:25.879Z,10.00
2018-04-08T07:49:54.697Z,10.13
2018-04-08T07:52:23.086Z,8.57
2018-04-08T07:54:51.459Z,8.75
2018-04-08T07:57:19.904Z,7.60
2018-04-08T07:59:48.862Z,9.13
2018-04-08T08:02:17.567Z,7.97
2018-04-08T08:04:48.447Z,6.85
2018-04-08T08:07:17.723Z,6.60
2018-04-08T08:09:48.446Z,8.20
2018-04-08T08:12:16.740Z,6.57
2018-04-08T08:14:45.178Z,6.75
2018-04-08T08:17:13.661Z,7.75
2018-04-08T08:19:42.417Z,7.25
2018-04-08T08:22:11.100Z,9.23
2018-04-08T08:24:39.469Z,6.80
2018-04-08T08:27:07.974Z,7.97
2018-04-08T08:29:36.838Z,8.30
2018-04-08T08:32:05.573Z,7.53
2018-04-08T08:34:33.959Z,7.20
2018-04-08T08:37:02.286Z,8.40
2018-04-08T08:39:31.100Z,7.62
2018-04-08T08:42:00.032Z,7.75
2018-04-08T08:44:28.716Z,8.07
2018-04-08T08:46:57.309Z,6.62
2018-04-08T08:49:25.926Z,8.57
2018-04-08T08:51:54.901Z,8.18
2018-04-08T08:54:23.246Z,8.52
2018-04-08T08:56:51.624Z,7.35
2018-04-08T08:59:23.922Z,7.47
2018-04-08T09:01:52.397Z,7.78
2018-04-08T09:04:20.717Z,7.00
2018-04-08T09:06:49.212Z,7.00
2018-04-08T09:09:18.340Z,7.93
2018-04-08T09:11:46.780Z,7.68
2018-04-08T09:14:15.233Z,7.85
2018-04-08T09:16:43.708Z,7.90
2018-04-08T09:19:12.587Z,8.35
2018-04-08T09:21:41.043Z,8.50
2018-04-08T09:24:11.567Z,7.47
2018-04-08T09:26:40.253Z,6.62
2018-04-08T09:29:14.184Z,7.80
2018-04-08T09:31:42.504Z,7.35
2018-04-08T09:34:11.026Z,8.25
2018-04-08T09:36:39.390Z,7.82
2018-04-08T09:39:09.029Z,8.88
2018-04-08T09:41:37.304Z,8.18
2018-04-08T09:44:06.108Z,7.70
2018-04-08T09:46:47.589Z,7.03
2018-04-08T09:49:16.478Z,8.40
2018-04-08T09:51:44.805Z,7.28
2018-04-08T09:54:14.672Z,7.90
2018-04-08T09:56:43.060Z,7.68
2018-04-08T09:59:11.562Z,8.63
2018-04-08T10:01:44.404Z,8.55
2018-04-08T10:04:15.529Z,9.52
2018-04-08T10:06:43.840Z,8.00
2018-04-08T10:09:12.196Z,8.43
2018-04-08T10:11:40.648Z,7.65
2018-04-08T10:14:09.364Z,6.95
2018-04-08T10:16:37.662Z,7.90
2018-04-08T10:19:06.066Z,8.63
2018-04-08T10:21:34.425Z,7.28
2018-04-08T10:24:04.121Z,9.43
2018-04-08T10:26:32.525Z,8.77
2018-04-08T10:29:00.932Z,8.13
2018-04-08T10:31:29.235Z,7.25
2018-04-08T10:33:57.546Z,8.93
2018-04-08T10:36:25.903Z,7.47
2018-04-08T10:39:00.469Z,8.75
2018-04-08T10:41:28.804Z,8.25
2018-04-08T10:43:57.200Z,9.15
2018-04-08T10:46:25.564Z,7.75
2018-04-08T10:48:55.393Z,9.48
2018-04-08T10:51:24.328Z,8.27
2018-04-08T10:53:52.768Z,7.82
2018-04-08T10:56:29.480Z,8.20
2018-04-08T10:58:57.953Z,7.47
2018-04-08T11:01:26.420Z,9.85
2018-04-08T11:03:54.775Z,7.70
2018-04-08T11:06:23.170Z,8.68
2018-04-08T11:08:51.621Z,7.53
2018-04-08T11:11:20.315Z,9.40
2018-04-08T11:13:48.813Z,8.73
2018-04-08T11:16:17.912Z,7.62
2018-04-08T11:18:46.257Z,7.72
2018-04-08T11:21:15.829Z,7.18
2018-04-08T11:23:44.145Z,7.80
2018-04-08T11:26:12.491Z,7.70
2018-04-08T11:28:40.797Z,8.35
2018-04-08T11:31:09.178Z,8.25
2018-04-08T11:33:37.489Z,8.40
2018-04-08T11:36:07.270Z,9.15
2018-04-08T11:38:35.660Z,7.70
2018-04-08T11:41:04.028Z,7.28
2018-04-08T11:43:32.418Z,6.45
2018-04-08T11:46:00.995Z,7.20
2018-04-08T11:48:29.346Z,6.50
2018-04-08T11:50:57.678Z,5.87
2018-04-08T11:53:26.065Z,6.57
2018-04-08T11:55:54.702Z,7.72
2018-04-08T11:58:23.029Z,7.82
2018-04-08T12:00:51.436Z,8.02
2018-04-08T12:03:20.338Z,6.47
2018-04-08T12:06:07.754Z,6.60
2018-04-08T12:08:36.250Z,7.85
2018-04-08T12:11:04.926Z,7.05
2018-04-08T12:13:33.277Z,6.28
2018-04-08T12:16:02.936Z,8.35
2018-04-08T12:18:32.016Z,5.93
2018-04-08T12:21:00.415Z,7.25
2018-04-08T12:23:28.765Z,6.95
2018-04-08T12:25:58.368Z,5.93
2018-04-08T12:28:27.032Z,7.18
2018-04-08T12:30:55.552Z,5.47
2018-04-08T12:33:23.922Z,7.45
2018-04-08T12:35:53.003Z,6.53
2018-04-08T12:38:21.663Z,8.35
2018-04-08T12:40:50.229Z,6.78
2018-04-08T12:43:18.617Z,6.60
2018-04-08T12:45:48.284Z,5.95
2018-04-08T12:48:16.787Z,5.97
2018-04-08T12:50:45.233Z,5.25
2018-04-08T12:53:13.617Z,6.87
2018-04-08T12:55:43.518Z,5.78
2018-04-08T12:58:11.858Z,6.57
2018-04-08T13:00:40.283Z,6.37
2018-04-08T13:45:26.171Z,5.53
2018-04-08T13:48:27.769Z,5.30
2018-04-08T13:50:57.254Z,4.82
2018-04-08T13:53:25.908Z,5.75
2018-04-08T13:55:54.380Z,4.80
2018-04-08T13:58:22.765Z,4.53
2018-04-08T14:00:51.102Z,4.65
2018-04-08T14:03:20.051Z,4.05
2018-04-08T14:05:48.807Z,4.53
2018-04-08T14:08:17.198Z,4.43
2018-04-08T14:10:45.522Z,4.10
2018-04-08T14:13:17.546Z,11.95
2018-04-08T14:15:45.871Z,4.50
2018-04-08T14:18:14.203Z,5.87
2018-04-08T14:20:42.497Z,4.78
2018-04-08T14:23:10.903Z,4.78
2018-04-08T14:25:39.553Z,3.87
2018-04-08T14:28:08.193Z,5.32
2018-04-08T14:30:36.491Z,3.75
2018-04-08T14:33:04.922Z,3.72
2018-04-08T14:35:33.438Z,4.12
2018-04-08T14:38:01.773Z,3.83
2018-04-08T14:40:30.262Z,3.83
2018-04-08T14:43:03.475Z,3.70
2018-04-08T14:45:31.949Z,4.12
2018-04-08T14:48:00.467Z,3.10
2018-04-08T14:50:29.772Z,3.42
2018-04-08T14:52:59.609Z,2.47
2018-04-08T14:55:27.965Z,3.10
2018-04-08T14:57:56.402Z,2.25
2018-04-08T15:00:24.745Z,2.40
2018-04-08T15:02:53.420Z,2.58
2018-04-08T15:05:21.773Z,2.62
2018-04-08T15:07:50.233Z,2.60
2018-04-08T15:10:19.008Z,2.70
2018-04-08T15:12:48.821Z,2.50
2018-04-08T15:15:17.313Z,2.58
2018-04-08T15:17:46.033Z,2.53
2018-04-08T15:20:14.411Z,3.12
2018-04-08T15:22:43.272Z,2.30
2018-04-08T15:25:11.953Z,2.45
2018-04-08T15:27:41.003Z,2.25
2018-04-08T15:30:09.485Z,2.42
2018-04-08T15:32:38.352Z,2.87
2018-04-08T15:35:07.973Z,2.97
2018-04-08T15:37:36.454Z,2.30
2018-04-08T15:40:04.827Z,2.25
2018-04-08T15:42:33.435Z,1.95
2018-04-08T15:45:01.702Z,1.92
2018-04-08T15:47:30.380Z,2.00
2018-04-08T15:49:58.717Z,2.20
2018-04-08T15:52:27.737Z,2.50
2018-04-08T15:54:56.075Z,2.17
2018-04-08T15:57:25.063Z,7.70
2018-04-08T15:59:53.473Z,9.88
2018-04-08T16:02:22.012Z,5.87
2018-04-08T16:04:50.458Z,2.58
2018-04-08T16:07:20.497Z,2.30
2018-04-08T16:09:49.064Z,2.20
2018-04-08T16:12:17.640Z,2.85
2018-04-08T16:14:46.125Z,2.25
2018-04-08T16:17:14.928Z,2.35
2018-04-08T16:19:43.877Z,2.20
2018-04-08T16:22:12.339Z,2.60
2018-04-08T16:24:40.738Z,2.60
2018-04-08T16:27:14.813Z,2.20
2018-04-08T16:29:43.160Z,3.20
2018-04-08T16:32:11.560Z,2.70
2018-04-08T16:34:40.309Z,2.60
2018-04-08T16:37:08.696Z,2.70
2018-04-08T16:42:13.881Z,3.35
2018-04-08T16:44:42.303Z,2.90
2018-04-08T16:47:10.688Z,2.80
2018-04-08T16:49:39.127Z,3.58
2018-04-08T16:52:08.006Z,3.25
2018-04-08T16:54:36.412Z,3.45
2018-04-08T16:57:05.056Z,3.10
2018-04-08T16:59:33.983Z,4.65
2018-04-08T17:02:03.773Z,3.67
2018-04-08T17:04:32.309Z,3.83
2018-04-08T17:07:00.817Z,3.80
2018-04-08T17:09:30.038Z,3.65
2018-04-08T17:11:59.335Z,3.20
2018-04-08T17:14:27.734Z,3.47
2018-04-08T17:16:59.824Z,3.65
2018-04-08T17:19:29.507Z,4.20
2018-04-08T17:22:00.005Z,5.10
2018-04-08T17:24:30.413Z,4.12
2018-04-08T17:27:01.994Z,4.00
2018-04-08T17:29:31.234Z,3.78
2018-04-08T17:32:01.338Z,4.22
2018-04-08T17:34:30.610Z,3.90
2018-04-08T17:36:59.852Z,4.20
2018-04-08T17:39:29.129Z,3.92
2018-04-08T17:41:58.736Z,3.85
2018-04-08T17:44:27.741Z,4.12
2018-04-08T17:46:57.004Z,4.40
2018-04-08T17:49:27.394Z,3.97
2018-04-08T17:51:58.609Z,3.78
2018-04-08T17:54:27.922Z,3.62
2018-04-08T17:56:56.788Z,3.85
2018-04-08T17:59:26.132Z,3.65
2018-04-08T18:01:56.813Z,3.85
2018-04-08T18:04:25.985Z,3.47
2018-04-08T18:06:55.437Z,3.70
2018-04-08T18:09:24.807Z,3.37
2018-04-08T18:11:53.881Z,4.10
2018-04-08T18:14:24.091Z,3.55
2018-04-08T18:16:53.011Z,3.60
2018-04-08T18:19:22.385Z,3.65
2018-04-08T18:21:51.296Z,3.53
2018-04-08T18:24:20.148Z,3.03
2018-04-08T18:26:50.909Z,2.75
2018-04-08T18:29:21.568Z,4.05
2018-04-08T18:31:50.605Z,3.60
2018-04-08T18:34:31.916Z,3.58
2018-04-08T18:37:00.990Z,3.53
2018-04-08T18:39:31.103Z,3.83
2018-04-08T18:42:01.071Z,3.75
2018-04-08T18:44:30.626Z,3.50
2018-04-08T18:47:00.102Z,3.47
2018-04-08T18:49:29.749Z,3.42
2018-04-08T18:51:58.625Z,3.80
2018-04-08T18:54:28.851Z,3.58
2018-04-08T18:56:59.354Z,3.53
2018-04-08T18:59:28.688Z,3.97
2018-04-08T19:01:57.189Z,3.42
2018-04-08T19:04:27.006Z,3.10
2018-04-08T19:06:55.706Z,3.47
2018-04-08T19:09:25.331Z,3.60
2018-04-08T19:11:53.774Z,2.83
2018-04-08T19:14:22.628Z,3.37
2018-04-08T19:16:53.373Z,3.90
2018-04-08T19:19:25.061Z,4.07
2018-04-08T19:21:54.019Z,3.47
2018-04-08T19:24:22.491Z,4.43
2018-04-08T19:26:51.505Z,3.83
2018-04-08T19:29:20.592Z,3.20
2018-04-08T19:31:50.322Z,4.05
2018-04-08T19:34:18.970Z,3.67
2018-04-08T19:36:47.537Z,3.92
2018-04-08T19:39:16.159Z,4.00
2018-04-08T19:41:48.318Z,3.72
2018-04-08T19:44:17.725Z,3.85
2018-04-08T19:46:47.312Z,3.62
2018-04-08T19:49:16.947Z,4.18
2018-04-08T19:51:45.872Z,4.60
2018-04-08T19:54:14.900Z,4.40
2018-04-08T19:56:46.485Z,4.93
2018-04-08T19:59:15.372Z,4.05
2018-04-08T20:01:44.929Z,4.50
2018-04-08T20:04:13.773Z,5.40
2018-04-08T20:06:43.467Z,4.30
2018-04-08T20:09:12.498Z,4.45
2018-04-08T20:11:40.967Z,4.32
2018-04-08T20:14:09.476Z,4.72
2018-04-08T20:16:37.922Z,3.72
2018-04-08T20:19:07.515Z,5.20
2018-04-08T20:21:37.141Z,5.22
2018-04-08T20:24:05.863Z,4.40
2018-04-08T20:26:34.449Z,4.00
2018-04-08T20:29:02.749Z,4.60
2018-04-08T20:31:31.255Z,5.03
2018-04-08T20:33:59.899Z,5.20
2018-04-08T20:36:28.420Z,5.78
2018-04-08T20:38:57.002Z,5.40
2018-04-08T20:41:26.013Z,5.87
2018-04-08T20:44:02.226Z,4.97
2018-04-08T20:46:30.773Z,4.93
2018-04-08T20:49:01.167Z,4.90
2018-04-08T20:51:30.354Z,5.90
2018-04-08T20:53:59.165Z,6.55
2018-04-08T20:56:27.668Z,5.07
2018-04-08T20:58:58.488Z,6.15
2018-04-08T21:01:26.930Z,6.50
2018-04-08T21:03:55.900Z,5.90
2018-04-08T21:06:24.290Z,6.22
2018-04-08T21:08:52.615Z,5.95
2018-04-08T21:11:20.945Z,5.97
2018-04-08T21:13:49.761Z,8.02
2018-04-08T21:16:18.460Z,6.75
2018-04-08T21:18:47.535Z,8.70
2018-04-08T21:21:17.471Z,7.30
2018-04-08T21:23:45.873Z,7.10
2018-04-08T21:26:14.374Z,6.30
2018-04-08T21:28:45.331Z,6.57
2018-04-08T21:31:14.426Z,7.18
2018-04-08T21:33:44.306Z,6.40
2018-04-08T21:36:13.081Z,6.28
2018-04-08T21:38:44.329Z,7.05
2018-04-08T21:41:13.677Z,6.12
2018-04-08T21:43:42.534Z,5.82
2018-04-08T21:46:13.685Z,5.37
2018-04-08T21:48:42.033Z,6.70
2018-04-08T21:51:11.686Z,6.62
2018-04-08T21:53:41.881Z,8.07
2018-04-08T21:56:10.815Z,7.28
2018-04-08T21:58:39.772Z,6.80
2018-04-08T22:01:10.464Z,6.60
2018-04-08T22:03:39.121Z,5.70
2018-04-08T22:06:07.850Z,7.72
2018-04-08T22:08:37.078Z,6.50
2018-04-08T22:11:07.761Z,7.00
2018-04-08T22:13:36.323Z,6.43
2018-04-08T22:16:06.034Z,6.90
2018-04-08T22:18:34.649Z,7.22
2018-04-08T22:21:04.014Z,7.32
2018-04-08T22:23:32.853Z,6.43
2018-04-08T22:26:01.551Z,6.43
2018-04-08T22:28:30.234Z,6.40
2018-04-08T22:30:58.591Z,6.75
2018-04-08T22:33:26.980Z,6.80
2018-04-08T22:35:55.962Z,7.65
2018-04-08T22:38:24.909Z,7.10
2018-04-08T22:40:53.336Z,7.10
2018-04-08T22:43:22.008Z,6.57
2018-04-08T22:45:50.491Z,6.90
2018-04-08T22:48:20.850Z,6.62
2018-04-08T22:50:49.462Z,6.65
2018-04-08T22:53:17.812Z,6.87
2018-04-08T22:55:46.155Z,5.65
2018-04-08T22:58:14.984Z,6.18
2018-04-08T23:00:43.700Z,7.07
2018-04-08T23:03:12.048Z,6.95
2018-04-08T23:05:40.905Z,7.30
2018-04-08T23:08:09.296Z,7.80
2018-04-08T23:10:37.889Z,7.78
2018-04-08T23:13:06.189Z,6.82
2018-04-08T23:15:34.557Z,6.40
2018-04-08T23:18:02.857Z,7.12
2018-04-08T23:20:33.473Z,7.45
2018-04-08T23:23:01.792Z,7.82
2018-04-08T23:25:30.107Z,7.43
2018-04-08T23:27:58.527Z,6.50
2018-04-08T23:30:28.142Z,8.27
2018-04-08T23:32:56.746Z,8.15
2018-04-08T23:35:25.623Z,7.45
2018-04-08T23:37:54.221Z,7.10
2018-04-08T23:40:27.758Z,6.90
2018-04-08T23:42:56.110Z,7.70
2018-04-08T23:45:24.512Z,7.15
2018-04-08T23:47:52.788Z,7.60
2018-04-08T23:50:22.490Z,6.82
2018-04-08T23:52:50.809Z,7.57
2018-04-08T23:55:19.118Z,6.85
2018-04-08T23:57:47.477Z,7.03
